sensor_id;sensor_type;location;lat;lon;timestamp;P1;durP1;ratioP1;P2;durP2;ratioP2
6282;SDS011;3174;53.486;9.568;2024-03-07T00:00:04;13.57;;;7.53;;
6282;SDS011;3174;53.486;9.568;2024-03-07T00:02:41;15.27;;;8.60;;
6282;SDS011;3174;53.486;9.568;2024-03-07T00:05:10;20.80;;;10.67;;
6282;SDS011;3174;53.486;9.568;2024-03-07T00:07:39;14.00;;;7.27;;
6282;SDS011;3174;53.486;9.568;2024-03-07T00:10:08;15.00;;;7.97;;
6282;SDS011;3174;53.486;9.568;2024-03-07T00:12:38;16.43;;;10.07;;
6282;SDS011;3174;53.486;9.568;2024-03-07T00:15:09;22.20;;;10.90;;
6282;SDS011;3174;53.486;9.568;2024-03-07T00:17:38;21.00;;;10.80;;
6282;SDS011;3174;53.486;9.568;2024-03-07T00:20:07;20.47;;;9.00;;
6282;SDS011;3174;53.486;9.568;2024-03-07T00:22:42;14.97;;;8.30;;
6282;SDS011;3174;53.486;9.568;2024-03-07T00:25:10;22.67;;;11.33;;
6282;SDS011;3174;53.486;9.568;2024-03-07T00:27:41;22.47;;;11.23;;
6282;SDS011;3174;53.486;9.568;2024-03-07T00:30:13;18.73;;;10.10;;
6282;SDS011;3174;53.486;9.568;2024-03-07T00:32:45;22.23;;;10.93;;
6282;SDS011;3174;53.486;9.568;2024-03-07T00:35:14;22.97;;;11.77;;
6282;SDS011;3174;53.486;9.568;2024-03-07T00:37:43;20.70;;;11.37;;
6282;SDS011;3174;53.486;9.568;2024-03-07T00:40:11;24.27;;;11.20;;
6282;SDS011;3174;53.486;9.568;2024-03-07T00:42:39;21.17;;;10.60;;
6282;SDS011;3174;53.486;9.568;2024-03-07T00:45:08;21.97;;;10.10;;
6282;SDS011;3174;53.486;9.568;2024-03-07T00:47:37;20.77;;;10.37;;
6282;SDS011;3174;53.486;9.568;2024-03-07T00:50:06;24.73;;;10.27;;
6282;SDS011;3174;53.486;9.568;2024-03-07T00:52:36;19.83;;;10.80;;
6282;SDS011;3174;53.486;9.568;2024-03-07T00:55:04;23.00;;;11.10;;
6282;SDS011;3174;53.486;9.568;2024-03-07T00:57:35;20.53;;;10.63;;
6282;SDS011;3174;53.486;9.568;2024-03-07T01:00:03;21.10;;;10.10;;
6282;SDS011;3174;53.486;9.568;2024-03-07T01:02:31;21.73;;;10.77;;
6282;SDS011;3174;53.486;9.568;2024-03-07T01:05:02;24.80;;;11.37;;
6282;SDS011;3174;53.486;9.568;2024-03-07T01:07:35;22.17;;;10.43;;
6282;SDS011;3174;53.486;9.568;2024-03-07T01:10:04;18.80;;;9.97;;
6282;SDS011;3174;53.486;9.568;2024-03-07T01:12:34;22.57;;;9.57;;
6282;SDS011;3174;53.486;9.568;2024-03-07T01:15:02;23.20;;;9.93;;
6282;SDS011;3174;53.486;9.568;2024-03-07T01:17:31;17.00;;;9.70;;
6282;SDS011;3174;53.486;9.568;2024-03-07T01:19:59;19.23;;;8.77;;
6282;SDS011;3174;53.486;9.568;2024-03-07T01:22:29;21.33;;;10.17;;
6282;SDS011;3174;53.486;9.568;2024-03-07T01:24:57;21.27;;;9.60;;
6282;SDS011;3174;53.486;9.568;2024-03-07T01:27:25;19.73;;;9.10;;
6282;SDS011;3174;53.486;9.568;2024-03-07T01:29:53;20.40;;;10.00;;
6282;SDS011;3174;53.486;9.568;2024-03-07T01:32:21;18.57;;;9.87;;
6282;SDS011;3174;53.486;9.568;2024-03-07T01:34:50;17.00;;;8.87;;
6282;SDS011;3174;53.486;9.568;2024-03-07T01:37:19;18.47;;;9.03;;
6282;SDS011;3174;53.486;9.568;2024-03-07T01:39:47;20.37;;;9.33;;
6282;SDS011;3174;53.486;9.568;2024-03-07T01:42:16;17.57;;;8.97;;
6282;SDS011;3174;53.486;9.568;2024-03-07T01:44:44;15.83;;;8.10;;
6282;SDS011;3174;53.486;9.568;2024-03-07T01:47:12;18.10;;;9.23;;
6282;SDS011;3174;53.486;9.568;2024-03-07T01:49:42;19.90;;;8.93;;
6282;SDS011;3174;53.486;9.568;2024-03-07T01:52:10;19.03;;;8.97;;
6282;SDS011;3174;53.486;9.568;2024-03-07T01:54:40;17.20;;;8.87;;
6282;SDS011;3174;53.486;9.568;2024-03-07T01:57:08;20.03;;;9.20;;
6282;SDS011;3174;53.486;9.568;2024-03-07T01:59:36;18.50;;;8.33;;
6282;SDS011;3174;53.486;9.568;2024-03-07T02:02:06;18.20;;;8.27;;
6282;SDS011;3174;53.486;9.568;2024-03-07T02:04:34;17.83;;;8.23;;
6282;SDS011;3174;53.486;9.568;2024-03-07T02:07:02;21.50;;;8.30;;
6282;SDS011;3174;53.486;9.568;2024-03-07T02:09:30;18.53;;;8.67;;
6282;SDS011;3174;53.486;9.568;2024-03-07T02:12:00;17.70;;;9.20;;
6282;SDS011;3174;53.486;9.568;2024-03-07T02:14:28;14.97;;;7.97;;
6282;SDS011;3174;53.486;9.568;2024-03-07T02:16:56;16.40;;;8.27;;
6282;SDS011;3174;53.486;9.568;2024-03-07T02:19:24;16.73;;;8.13;;
6282;SDS011;3174;53.486;9.568;2024-03-07T02:21:54;15.50;;;7.70;;
6282;SDS011;3174;53.486;9.568;2024-03-07T02:24:22;19.00;;;8.60;;
6282;SDS011;3174;53.486;9.568;2024-03-07T02:26:50;17.80;;;7.57;;
6282;SDS011;3174;53.486;9.568;2024-03-07T02:29:19;20.70;;;8.10;;
6282;SDS011;3174;53.486;9.568;2024-03-07T02:31:47;19.03;;;7.60;;
6282;SDS011;3174;53.486;9.568;2024-03-07T02:34:15;19.33;;;9.20;;
6282;SDS011;3174;53.486;9.568;2024-03-07T02:36:43;18.50;;;8.70;;
6282;SDS011;3174;53.486;9.568;2024-03-07T02:39:12;18.37;;;8.77;;
6282;SDS011;3174;53.486;9.568;2024-03-07T02:41:41;15.63;;;8.00;;
6282;SDS011;3174;53.486;9.568;2024-03-07T02:44:09;16.20;;;7.33;;
6282;SDS011;3174;53.486;9.568;2024-03-07T02:46:39;23.03;;;8.23;;
6282;SDS011;3174;53.486;9.568;2024-03-07T02:49:07;16.77;;;8.07;;
6282;SDS011;3174;53.486;9.568;2024-03-07T02:51:35;18.07;;;8.47;;
6282;SDS011;3174;53.486;9.568;2024-03-07T02:54:03;18.73;;;8.10;;
6282;SDS011;3174;53.486;9.568;2024-03-07T02:56:33;17.13;;;7.93;;
6282;SDS011;3174;53.486;9.568;2024-03-07T02:59:01;21.83;;;9.27;;
6282;SDS011;3174;53.486;9.568;2024-03-07T03:01:30;15.70;;;7.40;;
6282;SDS011;3174;53.486;9.568;2024-03-07T03:03:58;17.07;;;8.07;;
6282;SDS011;3174;53.486;9.568;2024-03-07T03:06:26;25.80;;;10.27;;
6282;SDS011;3174;53.486;9.568;2024-03-07T03:08:55;19.27;;;9.10;;
6282;SDS011;3174;53.486;9.568;2024-03-07T03:11:23;25.80;;;10.70;;
6282;SDS011;3174;53.486;9.568;2024-03-07T03:13:53;28.73;;;11.30;;
6282;SDS011;3174;53.486;9.568;2024-03-07T03:16:22;21.43;;;9.77;;
6282;SDS011;3174;53.486;9.568;2024-03-07T03:19:10;27.97;;;10.60;;
6282;SDS011;3174;53.486;9.568;2024-03-07T03:21:38;18.87;;;9.47;;
6282;SDS011;3174;53.486;9.568;2024-03-07T03:24:07;22.47;;;10.57;;
6282;SDS011;3174;53.486;9.568;2024-03-07T03:26:35;18.27;;;10.23;;
6282;SDS011;3174;53.486;9.568;2024-03-07T03:29:05;20.50;;;9.70;;
6282;SDS011;3174;53.486;9.568;2024-03-07T03:31:34;25.57;;;10.70;;
6282;SDS011;3174;53.486;9.568;2024-03-07T03:34:02;26.23;;;11.10;;
6282;SDS011;3174;53.486;9.568;2024-03-07T03:36:30;20.17;;;10.37;;
6282;SDS011;3174;53.486;9.568;2024-03-07T03:38:58;21.63;;;10.30;;
6282;SDS011;3174;53.486;9.568;2024-03-07T03:41:26;24.17;;;10.20;;
6282;SDS011;3174;53.486;9.568;2024-03-07T03:43:54;24.33;;;9.70;;
6282;SDS011;3174;53.486;9.568;2024-03-07T03:46:24;23.97;;;10.43;;
6282;SDS011;3174;53.486;9.568;2024-03-07T03:48:52;19.70;;;9.00;;
6282;SDS011;3174;53.486;9.568;2024-03-07T03:51:20;18.33;;;9.07;;
6282;SDS011;3174;53.486;9.568;2024-03-07T03:53:48;21.83;;;8.60;;
6282;SDS011;3174;53.486;9.568;2024-03-07T03:56:18;15.40;;;8.57;;
6282;SDS011;3174;53.486;9.568;2024-03-07T03:58:46;21.40;;;8.20;;
6282;SDS011;3174;53.486;9.568;2024-03-07T04:01:15;17.83;;;8.07;;
6282;SDS011;3174;53.486;9.568;2024-03-07T04:03:44;18.87;;;8.10;;
6282;SDS011;3174;53.486;9.568;2024-03-07T04:06:13;17.80;;;8.13;;
6282;SDS011;3174;53.486;9.568;2024-03-07T04:08:42;18.10;;;8.70;;
6282;SDS011;3174;53.486;9.568;2024-03-07T04:11:10;17.40;;;8.57;;
6282;SDS011;3174;53.486;9.568;2024-03-07T04:13:39;23.40;;;8.50;;
6282;SDS011;3174;53.486;9.568;2024-03-07T04:16:07;16.67;;;8.20;;
6282;SDS011;3174;53.486;9.568;2024-03-07T04:18:35;20.37;;;7.50;;
6282;SDS011;3174;53.486;9.568;2024-03-07T04:21:05;18.03;;;8.20;;
6282;SDS011;3174;53.486;9.568;2024-03-07T04:23:36;13.63;;;6.80;;
6282;SDS011;3174;53.486;9.568;2024-03-07T04:26:05;15.07;;;7.23;;
6282;SDS011;3174;53.486;9.568;2024-03-07T04:28:35;14.03;;;7.00;;
6282;SDS011;3174;53.486;9.568;2024-03-07T04:31:03;15.63;;;7.20;;
6282;SDS011;3174;53.486;9.568;2024-03-07T04:33:31;13.90;;;6.87;;
6282;SDS011;3174;53.486;9.568;2024-03-07T04:35:59;13.73;;;6.93;;
6282;SDS011;3174;53.486;9.568;2024-03-07T04:38:31;13.80;;;6.83;;
6282;SDS011;3174;53.486;9.568;2024-03-07T04:40:59;14.13;;;7.67;;
6282;SDS011;3174;53.486;9.568;2024-03-07T04:43:27;13.83;;;7.90;;
6282;SDS011;3174;53.486;9.568;2024-03-07T04:45:55;11.83;;;6.33;;
6282;SDS011;3174;53.486;9.568;2024-03-07T04:48:23;14.30;;;6.97;;
6282;SDS011;3174;53.486;9.568;2024-03-07T04:50:51;12.40;;;6.73;;
6282;SDS011;3174;53.486;9.568;2024-03-07T04:53:19;12.53;;;6.60;;
6282;SDS011;3174;53.486;9.568;2024-03-07T04:55:49;13.60;;;7.07;;
6282;SDS011;3174;53.486;9.568;2024-03-07T04:58:17;11.37;;;6.60;;
6282;SDS011;3174;53.486;9.568;2024-03-07T05:00:45;16.90;;;7.37;;
6282;SDS011;3174;53.486;9.568;2024-03-07T05:03:13;14.83;;;6.57;;
6282;SDS011;3174;53.486;9.568;2024-03-07T05:05:41;14.87;;;7.13;;
6282;SDS011;3174;53.486;9.568;2024-03-07T05:08:09;12.17;;;6.70;;
6282;SDS011;3174;53.486;9.568;2024-03-07T05:10:38;16.87;;;7.77;;
6282;SDS011;3174;53.486;9.568;2024-03-07T05:13:09;14.70;;;7.33;;
6282;SDS011;3174;53.486;9.568;2024-03-07T05:15:37;15.50;;;7.03;;
6282;SDS011;3174;53.486;9.568;2024-03-07T05:18:06;16.97;;;8.57;;
6282;SDS011;3174;53.486;9.568;2024-03-07T05:20:36;17.33;;;6.83;;
6282;SDS011;3174;53.486;9.568;2024-03-07T05:23:05;14.00;;;7.40;;
6282;SDS011;3174;53.486;9.568;2024-03-07T05:25:33;16.80;;;8.40;;
6282;SDS011;3174;53.486;9.568;2024-03-07T05:28:01;13.97;;;7.70;;
6282;SDS011;3174;53.486;9.568;2024-03-07T05:30:31;16.93;;;7.70;;
6282;SDS011;3174;53.486;9.568;2024-03-07T05:33:00;13.43;;;6.90;;
6282;SDS011;3174;53.486;9.568;2024-03-07T05:35:28;13.50;;;6.80;;
6282;SDS011;3174;53.486;9.568;2024-03-07T05:37:56;17.50;;;7.47;;
6282;SDS011;3174;53.486;9.568;2024-03-07T05:40:26;15.93;;;8.73;;
6282;SDS011;3174;53.486;9.568;2024-03-07T05:42:54;13.77;;;7.97;;
6282;SDS011;3174;53.486;9.568;2024-03-07T05:45:23;19.30;;;8.27;;
6282;SDS011;3174;53.486;9.568;2024-03-07T05:47:52;15.07;;;7.13;;
6282;SDS011;3174;53.486;9.568;2024-03-07T05:50:20;14.93;;;7.37;;
6282;SDS011;3174;53.486;9.568;2024-03-07T05:52:49;16.97;;;7.17;;
6282;SDS011;3174;53.486;9.568;2024-03-07T05:55:17;11.93;;;6.90;;
6282;SDS011;3174;53.486;9.568;2024-03-07T05:57:46;12.93;;;6.97;;
6282;SDS011;3174;53.486;9.568;2024-03-07T06:00:14;14.30;;;7.23;;
6282;SDS011;3174;53.486;9.568;2024-03-07T06:02:55;17.13;;;8.30;;
6282;SDS011;3174;53.486;9.568;2024-03-07T06:05:24;16.47;;;8.17;;
6282;SDS011;3174;53.486;9.568;2024-03-07T06:07:53;14.27;;;7.60;;
6282;SDS011;3174;53.486;9.568;2024-03-07T06:10:23;16.47;;;8.37;;
6282;SDS011;3174;53.486;9.568;2024-03-07T06:12:51;16.13;;;8.43;;
6282;SDS011;3174;53.486;9.568;2024-03-07T06:15:35;12.20;;;6.70;;
6282;SDS011;3174;53.486;9.568;2024-03-07T06:18:06;15.53;;;8.87;;
6282;SDS011;3174;53.486;9.568;2024-03-07T06:20:38;16.77;;;7.97;;
6282;SDS011;3174;53.486;9.568;2024-03-07T06:23:07;14.37;;;7.70;;
6282;SDS011;3174;53.486;9.568;2024-03-07T06:25:38;15.00;;;7.80;;
6282;SDS011;3174;53.486;9.568;2024-03-07T06:28:14;13.60;;;6.83;;
6282;SDS011;3174;53.486;9.568;2024-03-07T06:30:42;12.37;;;7.63;;
6282;SDS011;3174;53.486;9.568;2024-03-07T06:33:12;14.87;;;8.07;;
6282;SDS011;3174;53.486;9.568;2024-03-07T06:35:43;13.27;;;6.63;;
6282;SDS011;3174;53.486;9.568;2024-03-07T06:38:11;15.27;;;7.43;;
6282;SDS011;3174;53.486;9.568;2024-03-07T06:40:40;12.47;;;7.17;;
6282;SDS011;3174;53.486;9.568;2024-03-07T06:43:09;13.30;;;7.80;;
6282;SDS011;3174;53.486;9.568;2024-03-07T06:45:38;13.50;;;6.80;;
6282;SDS011;3174;53.486;9.568;2024-03-07T06:48:08;16.67;;;8.20;;
6282;SDS011;3174;53.486;9.568;2024-03-07T06:50:38;13.03;;;7.13;;
6282;SDS011;3174;53.486;9.568;2024-03-07T06:53:06;12.93;;;7.50;;
6282;SDS011;3174;53.486;9.568;2024-03-07T06:55:35;16.97;;;7.50;;
6282;SDS011;3174;53.486;9.568;2024-03-07T06:58:03;15.03;;;7.47;;
6282;SDS011;3174;53.486;9.568;2024-03-07T07:00:32;13.70;;;7.63;;
6282;SDS011;3174;53.486;9.568;2024-03-07T07:03:04;12.43;;;7.93;;
6282;SDS011;3174;53.486;9.568;2024-03-07T07:05:33;14.70;;;7.10;;
6282;SDS011;3174;53.486;9.568;2024-03-07T07:08:03;11.50;;;7.30;;
6282;SDS011;3174;53.486;9.568;2024-03-07T07:10:33;10.90;;;7.20;;
6282;SDS011;3174;53.486;9.568;2024-03-07T07:13:03;14.87;;;6.90;;
6282;SDS011;3174;53.486;9.568;2024-03-07T07:15:31;15.50;;;7.00;;
6282;SDS011;3174;53.486;9.568;2024-03-07T07:17:59;12.80;;;7.30;;
6282;SDS011;3174;53.486;9.568;2024-03-07T07:20:29;9.10;;;6.50;;
6282;SDS011;3174;53.486;9.568;2024-03-07T07:22:57;14.13;;;7.13;;
6282;SDS011;3174;53.486;9.568;2024-03-07T07:25:28;15.10;;;7.77;;
6282;SDS011;3174;53.486;9.568;2024-03-07T07:27:56;13.07;;;7.30;;
6282;SDS011;3174;53.486;9.568;2024-03-07T07:30:24;17.43;;;8.33;;
6282;SDS011;3174;53.486;9.568;2024-03-07T07:32:53;12.53;;;7.10;;
6282;SDS011;3174;53.486;9.568;2024-03-07T07:35:22;13.60;;;7.03;;
6282;SDS011;3174;53.486;9.568;2024-03-07T07:37:51;12.97;;;6.93;;
6282;SDS011;3174;53.486;9.568;2024-03-07T07:40:22;17.50;;;6.73;;
6282;SDS011;3174;53.486;9.568;2024-03-07T07:42:55;13.07;;;7.27;;
6282;SDS011;3174;53.486;9.568;2024-03-07T07:45:23;14.50;;;6.90;;
6282;SDS011;3174;53.486;9.568;2024-03-07T07:47:52;11.50;;;6.53;;
6282;SDS011;3174;53.486;9.568;2024-03-07T07:50:21;12.63;;;7.27;;
6282;SDS011;3174;53.486;9.568;2024-03-07T07:52:51;15.20;;;7.27;;
6282;SDS011;3174;53.486;9.568;2024-03-07T07:55:21;13.87;;;6.77;;
6282;SDS011;3174;53.486;9.568;2024-03-07T07:57:50;13.80;;;7.50;;
6282;SDS011;3174;53.486;9.568;2024-03-07T08:00:22;12.93;;;7.00;;
6282;SDS011;3174;53.486;9.568;2024-03-07T08:02:52;15.93;;;7.53;;
6282;SDS011;3174;53.486;9.568;2024-03-07T08:05:22;15.07;;;7.47;;
6282;SDS011;3174;53.486;9.568;2024-03-07T08:07:51;11.67;;;6.77;;
6282;SDS011;3174;53.486;9.568;2024-03-07T08:10:19;15.47;;;8.37;;
6282;SDS011;3174;53.486;9.568;2024-03-07T08:12:49;13.37;;;7.23;;
6282;SDS011;3174;53.486;9.568;2024-03-07T08:15:18;13.13;;;6.47;;
6282;SDS011;3174;53.486;9.568;2024-03-07T08:17:48;16.77;;;7.57;;
6282;SDS011;3174;53.486;9.568;2024-03-07T08:20:18;12.20;;;6.90;;
6282;SDS011;3174;53.486;9.568;2024-03-07T08:22:49;10.50;;;6.20;;
6282;SDS011;3174;53.486;9.568;2024-03-07T08:25:19;16.27;;;7.03;;
6282;SDS011;3174;53.486;9.568;2024-03-07T08:27:50;9.90;;;6.50;;
6282;SDS011;3174;53.486;9.568;2024-03-07T08:30:27;14.70;;;8.07;;
6282;SDS011;3174;53.486;9.568;2024-03-07T08:32:57;23.03;;;11.00;;
6282;SDS011;3174;53.486;9.568;2024-03-07T08:35:29;24.37;;;11.87;;
6282;SDS011;3174;53.486;9.568;2024-03-07T08:37:57;20.07;;;9.43;;
6282;SDS011;3174;53.486;9.568;2024-03-07T08:40:25;23.87;;;11.67;;
6282;SDS011;3174;53.486;9.568;2024-03-07T08:42:58;18.47;;;10.07;;
6282;SDS011;3174;53.486;9.568;2024-03-07T08:45:28;19.10;;;8.83;;
6282;SDS011;3174;53.486;9.568;2024-03-07T08:48:01;15.33;;;7.93;;
6282;SDS011;3174;53.486;9.568;2024-03-07T08:50:32;13.33;;;7.83;;
6282;SDS011;3174;53.486;9.568;2024-03-07T08:53:01;12.43;;;6.97;;
6282;SDS011;3174;53.486;9.568;2024-03-07T08:55:31;13.17;;;7.03;;
6282;SDS011;3174;53.486;9.568;2024-03-07T08:57:59;14.00;;;6.93;;
6282;SDS011;3174;53.486;9.568;2024-03-07T09:00:28;14.00;;;7.47;;
6282;SDS011;3174;53.486;9.568;2024-03-07T09:03:02;18.03;;;8.37;;
6282;SDS011;3174;53.486;9.568;2024-03-07T09:05:37;22.57;;;10.93;;
6282;SDS011;3174;53.486;9.568;2024-03-07T09:08:05;17.50;;;8.23;;
6282;SDS011;3174;53.486;9.568;2024-03-07T09:10:34;22.43;;;11.53;;
6282;SDS011;3174;53.486;9.568;2024-03-07T09:13:03;27.60;;;11.93;;
6282;SDS011;3174;53.486;9.568;2024-03-07T09:15:34;30.73;;;13.73;;
6282;SDS011;3174;53.486;9.568;2024-03-07T09:18:03;16.77;;;8.83;;
6282;SDS011;3174;53.486;9.568;2024-03-07T09:20:32;24.03;;;11.33;;
6282;SDS011;3174;53.486;9.568;2024-03-07T09:23:01;20.37;;;11.10;;
6282;SDS011;3174;53.486;9.568;2024-03-07T09:25:29;18.33;;;10.07;;
6282;SDS011;3174;53.486;9.568;2024-03-07T09:27:59;22.40;;;12.23;;
6282;SDS011;3174;53.486;9.568;2024-03-07T09:30:27;32.73;;;17.90;;
6282;SDS011;3174;53.486;9.568;2024-03-07T09:32:58;20.47;;;10.33;;
6282;SDS011;3174;53.486;9.568;2024-03-07T09:35:28;43.07;;;20.43;;
6282;SDS011;3174;53.486;9.568;2024-03-07T09:37:56;46.00;;;21.83;;
6282;SDS011;3174;53.486;9.568;2024-03-07T09:40:24;30.40;;;16.40;;
6282;SDS011;3174;53.486;9.568;2024-03-07T09:42:53;29.87;;;15.27;;
6282;SDS011;3174;53.486;9.568;2024-03-07T09:45:28;32.80;;;16.73;;
6282;SDS011;3174;53.486;9.568;2024-03-07T09:47:59;29.93;;;15.73;;
6282;SDS011;3174;53.486;9.568;2024-03-07T09:50:29;28.97;;;14.60;;
6282;SDS011;3174;53.486;9.568;2024-03-07T09:52:58;31.83;;;15.33;;
6282;SDS011;3174;53.486;9.568;2024-03-07T09:55:27;26.20;;;14.30;;
6282;SDS011;3174;53.486;9.568;2024-03-07T09:57:56;29.50;;;15.60;;
6282;SDS011;3174;53.486;9.568;2024-03-07T10:00:26;32.37;;;15.70;;
6282;SDS011;3174;53.486;9.568;2024-03-07T10:02:57;34.23;;;16.93;;
6282;SDS011;3174;53.486;9.568;2024-03-07T10:05:29;29.87;;;16.50;;
6282;SDS011;3174;53.486;9.568;2024-03-07T10:07:59;26.47;;;14.70;;
6282;SDS011;3174;53.486;9.568;2024-03-07T10:10:28;31.77;;;16.70;;
6282;SDS011;3174;53.486;9.568;2024-03-07T10:12:57;32.13;;;16.60;;
6282;SDS011;3174;53.486;9.568;2024-03-07T10:15:27;31.50;;;16.27;;
6282;SDS011;3174;53.486;9.568;2024-03-07T10:17:56;30.97;;;16.37;;
6282;SDS011;3174;53.486;9.568;2024-03-07T10:20:26;30.00;;;16.50;;
6282;SDS011;3174;53.486;9.568;2024-03-07T10:22:54;26.60;;;13.93;;
6282;SDS011;3174;53.486;9.568;2024-03-07T10:25:23;33.20;;;14.93;;
6282;SDS011;3174;53.486;9.568;2024-03-07T10:27:55;25.03;;;13.83;;
6282;SDS011;3174;53.486;9.568;2024-03-07T10:30:25;23.43;;;13.20;;
6282;SDS011;3174;53.486;9.568;2024-03-07T10:32:55;23.50;;;12.97;;
6282;SDS011;3174;53.486;9.568;2024-03-07T10:35:27;24.77;;;13.33;;
6282;SDS011;3174;53.486;9.568;2024-03-07T10:37:58;25.43;;;13.83;;
6282;SDS011;3174;53.486;9.568;2024-03-07T10:40:28;22.50;;;13.20;;
6282;SDS011;3174;53.486;9.568;2024-03-07T10:42:57;18.57;;;11.53;;
6282;SDS011;3174;53.486;9.568;2024-03-07T10:45:29;19.03;;;9.83;;
6282;SDS011;3174;53.486;9.568;2024-03-07T10:47:58;25.27;;;13.97;;
6282;SDS011;3174;53.486;9.568;2024-03-07T10:50:38;18.87;;;10.30;;
6282;SDS011;3174;53.486;9.568;2024-03-07T10:53:14;24.10;;;14.27;;
6282;SDS011;3174;53.486;9.568;2024-03-07T10:55:53;19.87;;;10.73;;
6282;SDS011;3174;53.486;9.568;2024-03-07T10:58:33;16.90;;;10.53;;
6282;SDS011;3174;53.486;9.568;2024-03-07T11:01:05;17.50;;;10.00;;
6282;SDS011;3174;53.486;9.568;2024-03-07T11:03:37;14.27;;;8.67;;
6282;SDS011;3174;53.486;9.568;2024-03-07T11:06:07;15.43;;;8.37;;
6282;SDS011;3174;53.486;9.568;2024-03-07T11:08:38;15.13;;;8.17;;
6282;SDS011;3174;53.486;9.568;2024-03-07T11:11:06;16.77;;;10.57;;
6282;SDS011;3174;53.486;9.568;2024-03-07T11:13:35;18.23;;;9.90;;
6282;SDS011;3174;53.486;9.568;2024-03-07T11:16:04;24.67;;;12.17;;
6282;SDS011;3174;53.486;9.568;2024-03-07T11:18:33;27.93;;;14.33;;
6282;SDS011;3174;53.486;9.568;2024-03-07T11:21:02;20.13;;;11.53;;
6282;SDS011;3174;53.486;9.568;2024-03-07T11:23:32;21.80;;;12.27;;
6282;SDS011;3174;53.486;9.568;2024-03-07T11:26:05;20.10;;;10.20;;
6282;SDS011;3174;53.486;9.568;2024-03-07T11:28:35;21.50;;;11.40;;
6282;SDS011;3174;53.486;9.568;2024-03-07T11:31:08;18.47;;;10.10;;
6282;SDS011;3174;53.486;9.568;2024-03-07T11:33:40;22.37;;;10.50;;
6282;SDS011;3174;53.486;9.568;2024-03-07T11:36:11;19.13;;;10.27;;
6282;SDS011;3174;53.486;9.568;2024-03-07T11:38:47;20.13;;;10.47;;
6282;SDS011;3174;53.486;9.568;2024-03-07T11:41:18;21.70;;;10.67;;
6282;SDS011;3174;53.486;9.568;2024-03-07T11:43:46;21.40;;;10.90;;
6282;SDS011;3174;53.486;9.568;2024-03-07T11:46:14;18.90;;;9.63;;
6282;SDS011;3174;53.486;9.568;2024-03-07T11:48:44;22.20;;;11.67;;
6282;SDS011;3174;53.486;9.568;2024-03-07T11:51:12;18.60;;;11.03;;
6282;SDS011;3174;53.486;9.568;2024-03-07T11:53:43;22.57;;;12.40;;
6282;SDS011;3174;53.486;9.568;2024-03-07T11:56:16;17.87;;;10.63;;
6282;SDS011;3174;53.486;9.568;2024-03-07T11:58:44;18.10;;;10.17;;
6282;SDS011;3174;53.486;9.568;2024-03-07T12:01:20;22.13;;;11.83;;
6282;SDS011;3174;53.486;9.568;2024-03-07T12:03:52;24.87;;;11.40;;
6282;SDS011;3174;53.486;9.568;2024-03-07T12:06:23;20.97;;;10.80;;
6282;SDS011;3174;53.486;9.568;2024-03-07T12:08:51;20.20;;;11.23;;
6282;SDS011;3174;53.486;9.568;2024-03-07T12:11:21;20.37;;;11.47;;
6282;SDS011;3174;53.486;9.568;2024-03-07T12:13:52;18.67;;;9.80;;
6282;SDS011;3174;53.486;9.568;2024-03-07T12:16:20;16.80;;;9.60;;
6282;SDS011;3174;53.486;9.568;2024-03-07T12:18:55;17.47;;;9.07;;
6282;SDS011;3174;53.486;9.568;2024-03-07T12:21:24;15.87;;;9.50;;
6282;SDS011;3174;53.486;9.568;2024-03-07T12:23:54;16.13;;;9.10;;
6282;SDS011;3174;53.486;9.568;2024-03-07T12:26:23;19.33;;;9.27;;
6282;SDS011;3174;53.486;9.568;2024-03-07T12:28:54;16.83;;;8.90;;
6282;SDS011;3174;53.486;9.568;2024-03-07T12:31:23;16.97;;;7.17;;
6282;SDS011;3174;53.486;9.568;2024-03-07T12:33:51;15.03;;;7.77;;
6282;SDS011;3174;53.486;9.568;2024-03-07T12:36:20;13.30;;;7.53;;
6282;SDS011;3174;53.486;9.568;2024-03-07T12:38:53;13.60;;;7.30;;
6282;SDS011;3174;53.486;9.568;2024-03-07T12:41:24;12.60;;;6.67;;
6282;SDS011;3174;53.486;9.568;2024-03-07T12:43:52;12.27;;;6.43;;
6282;SDS011;3174;53.486;9.568;2024-03-07T12:46:21;15.27;;;7.00;;
6282;SDS011;3174;53.486;9.568;2024-03-07T12:48:49;13.47;;;6.77;;
6282;SDS011;3174;53.486;9.568;2024-03-07T12:51:17;14.10;;;7.47;;
6282;SDS011;3174;53.486;9.568;2024-03-07T12:53:49;13.33;;;6.57;;
6282;SDS011;3174;53.486;9.568;2024-03-07T12:56:17;14.87;;;7.57;;
6282;SDS011;3174;53.486;9.568;2024-03-07T12:58:48;13.10;;;7.27;;
6282;SDS011;3174;53.486;9.568;2024-03-07T13:01:17;12.97;;;7.27;;
6282;SDS011;3174;53.486;9.568;2024-03-07T13:03:46;12.57;;;7.90;;
6282;SDS011;3174;53.486;9.568;2024-03-07T13:06:15;13.93;;;7.10;;
6282;SDS011;3174;53.486;9.568;2024-03-07T13:08:46;16.07;;;7.73;;
6282;SDS011;3174;53.486;9.568;2024-03-07T13:11:14;18.67;;;7.90;;
6282;SDS011;3174;53.486;9.568;2024-03-07T13:13:42;15.43;;;7.67;;
6282;SDS011;3174;53.486;9.568;2024-03-07T13:16:12;14.30;;;7.23;;
6282;SDS011;3174;53.486;9.568;2024-03-07T13:18:40;15.63;;;6.77;;
6282;SDS011;3174;53.486;9.568;2024-03-07T13:21:09;14.23;;;6.93;;
6282;SDS011;3174;53.486;9.568;2024-03-07T13:23:37;16.00;;;7.27;;
6282;SDS011;3174;53.486;9.568;2024-03-07T13:26:06;13.07;;;6.20;;
6282;SDS011;3174;53.486;9.568;2024-03-07T13:28:43;13.97;;;7.23;;
6282;SDS011;3174;53.486;9.568;2024-03-07T13:31:13;14.80;;;6.63;;
6282;SDS011;3174;53.486;9.568;2024-03-07T13:33:43;15.43;;;7.27;;
6282;SDS011;3174;53.486;9.568;2024-03-07T13:36:15;14.87;;;7.13;;
6282;SDS011;3174;53.486;9.568;2024-03-07T13:38:49;17.40;;;7.47;;
6282;SDS011;3174;53.486;9.568;2024-03-07T13:41:18;12.83;;;7.10;;
6282;SDS011;3174;53.486;9.568;2024-03-07T13:43:47;19.60;;;7.63;;
6282;SDS011;3174;53.486;9.568;2024-03-07T13:46:16;14.93;;;8.33;;
6282;SDS011;3174;53.486;9.568;2024-03-07T13:48:45;14.20;;;7.03;;
6282;SDS011;3174;53.486;9.568;2024-03-07T13:51:13;14.43;;;7.83;;
6282;SDS011;3174;53.486;9.568;2024-03-07T13:53:43;15.10;;;8.27;;
6282;SDS011;3174;53.486;9.568;2024-03-07T13:56:28;17.57;;;8.47;;
6282;SDS011;3174;53.486;9.568;2024-03-07T13:59:10;13.60;;;7.70;;
6282;SDS011;3174;53.486;9.568;2024-03-07T14:02:01;18.50;;;8.40;;
6282;SDS011;3174;53.486;9.568;2024-03-07T14:04:55;15.60;;;8.23;;
6282;SDS011;3174;53.486;9.568;2024-03-07T14:07:53;17.20;;;7.73;;
6282;SDS011;3174;53.486;9.568;2024-03-07T14:10:44;18.00;;;8.20;;
6282;SDS011;3174;53.486;9.568;2024-03-07T14:13:38;16.97;;;9.00;;
6282;SDS011;3174;53.486;9.568;2024-03-07T14:16:18;15.87;;;8.50;;
6282;SDS011;3174;53.486;9.568;2024-03-07T14:19:05;17.83;;;9.33;;
6282;SDS011;3174;53.486;9.568;2024-03-07T14:21:51;15.73;;;8.10;;
6282;SDS011;3174;53.486;9.568;2024-03-07T14:27:33;20.00;;;8.77;;
6282;SDS011;3174;53.486;9.568;2024-03-07T14:30:24;18.53;;;8.50;;
6282;SDS011;3174;53.486;9.568;2024-03-07T14:33:01;16.10;;;7.53;;
6282;SDS011;3174;53.486;9.568;2024-03-07T14:35:57;15.50;;;9.00;;
6282;SDS011;3174;53.486;9.568;2024-03-07T14:38:28;16.10;;;8.57;;
6282;SDS011;3174;53.486;9.568;2024-03-07T14:41:02;16.30;;;8.40;;
6282;SDS011;3174;53.486;9.568;2024-03-07T14:43:31;15.27;;;8.07;;
6282;SDS011;3174;53.486;9.568;2024-03-07T14:45:59;14.23;;;8.33;;
6282;SDS011;3174;53.486;9.568;2024-03-07T14:48:26;15.10;;;7.83;;
6282;SDS011;3174;53.486;9.568;2024-03-07T14:50:56;15.33;;;7.83;;
6282;SDS011;3174;53.486;9.568;2024-03-07T14:53:24;20.47;;;9.03;;
6282;SDS011;3174;53.486;9.568;2024-03-07T14:55:52;17.23;;;9.33;;
6282;SDS011;3174;53.486;9.568;2024-03-07T14:58:22;14.60;;;7.60;;
6282;SDS011;3174;53.486;9.568;2024-03-07T15:00:50;20.20;;;8.80;;
6282;SDS011;3174;53.486;9.568;2024-03-07T15:03:24;15.40;;;7.90;;
6282;SDS011;3174;53.486;9.568;2024-03-07T15:05:57;15.73;;;7.37;;
6282;SDS011;3174;53.486;9.568;2024-03-07T15:08:26;16.37;;;8.53;;
6282;SDS011;3174;53.486;9.568;2024-03-07T15:10:56;20.77;;;8.43;;
6282;SDS011;3174;53.486;9.568;2024-03-07T15:13:30;20.90;;;8.37;;
6282;SDS011;3174;53.486;9.568;2024-03-07T15:15:58;19.93;;;8.13;;
6282;SDS011;3174;53.486;9.568;2024-03-07T15:18:26;13.83;;;7.43;;